createdAt,value
2022-10-06T00:00:34.154Z,16.41
2022-10-06T00:10:37.891Z,16.41
2022-10-06T00:20:43.262Z,16.34
2022-10-06T00:30:47.154Z,16.32
2022-10-06T00:40:50.429Z,16.26
2022-10-06T00:50:55.021Z,16.23
2022-10-06T01:00:57.603Z,16.20
2022-10-06T01:11:01.892Z,16.14
2022-10-06T01:21:07.113Z,16.12
2022-10-06T01:31:10.921Z,16.00
2022-10-06T01:41:13.436Z,16.06
2022-10-06T01:51:17.358Z,16.01
2022-10-06T02:01:19.791Z,15.95
2022-10-06T02:11:23.564Z,15.99
2022-10-06T02:21:25.979Z,15.93
2022-10-06T02:31:29.772Z,15.95
2022-10-06T02:41:32.680Z,15.91
2022-10-06T02:51:36.397Z,15.84
2022-10-06T03:01:38.819Z,15.80
2022-10-06T03:11:43.675Z,15.82
2022-10-06T03:21:46.177Z,15.66
2022-10-06T03:31:50.143Z,15.65
2022-10-06T03:41:52.555Z,15.61
2022-10-06T03:51:56.268Z,15.47
2022-10-06T04:01:58.677Z,15.42
2022-10-06T04:12:02.587Z,15.44
2022-10-06T04:22:05.035Z,15.33
2022-10-06T04:32:08.812Z,15.35
2022-10-06T04:42:11.216Z,15.26
2022-10-06T04:52:14.968Z,15.24
2022-10-06T05:02:17.432Z,15.19
2022-10-06T05:12:21.272Z,15.19
2022-10-06T05:22:23.745Z,15.01
2022-10-06T05:32:27.532Z,15.05
2022-10-06T05:42:30.043Z,15.02
2022-10-06T05:52:33.843Z,15.10
2022-10-06T06:02:36.306Z,15.18
2022-10-06T06:12:40.129Z,15.25
2022-10-06T06:22:42.528Z,15.31
2022-10-06T06:32:46.568Z,15.31
2022-10-06T06:42:53.670Z,15.36
2022-10-06T06:52:57.759Z,15.45
2022-10-06T07:03:00.636Z,15.57
2022-10-06T07:13:04.462Z,15.75
2022-10-06T07:23:24.276Z,15.87
2022-10-06T07:33:29.201Z,15.60
2022-10-06T07:43:31.786Z,15.80
2022-10-06T07:53:36.023Z,15.70
2022-10-06T08:03:38.872Z,15.82
2022-10-06T08:13:43.607Z,15.91
2022-10-06T08:23:46.446Z,16.04
2022-10-06T08:33:53.871Z,16.13
2022-10-06T08:44:01.438Z,16.31
2022-10-06T08:54:09.725Z,15.81
2022-10-06T09:04:15.553Z,15.76
2022-10-06T09:14:22.434Z,16.10
2022-10-06T09:24:29.220Z,16.11
2022-10-06T09:34:38.099Z,16.12
2022-10-06T09:44:48.039Z,16.41
2022-10-06T09:55:11.432Z,16.64
2022-10-06T10:05:20.155Z,16.85
2022-10-06T10:15:31.143Z,16.98
2022-10-06T10:25:47.916Z,16.71
2022-10-06T10:35:55.227Z,16.63
2022-10-06T10:46:01.364Z,17.20
2022-10-06T10:56:08.517Z,17.49
2022-10-06T11:06:29.687Z,18.14
2022-10-06T11:16:39.801Z,19.21
2022-10-06T11:26:59.879Z,19.71
2022-10-06T11:37:08.335Z,20.30
2022-10-06T11:47:14.504Z,20.46
2022-10-06T11:57:40.720Z,21.06
2022-10-06T12:07:58.002Z,21.04
2022-10-06T12:18:05.208Z,20.47
2022-10-06T12:28:14.878Z,20.17
2022-10-06T12:38:38.551Z,19.76
2022-10-06T12:48:44.697Z,19.68
2022-10-06T12:58:47.102Z,19.52
2022-10-06T13:09:05.083Z,19.30
2022-10-06T13:19:15.300Z,19.22
2022-10-06T13:29:21.203Z,19.60
2022-10-06T13:39:24.524Z,20.23
2022-10-06T13:49:30.200Z,20.43
2022-10-06T13:59:33.962Z,19.92
2022-10-06T14:09:37.684Z,19.72
2022-10-06T14:19:41.132Z,19.51
2022-10-06T14:29:44.865Z,19.48
2022-10-06T14:39:47.383Z,19.39
2022-10-06T14:49:51.309Z,19.16
2022-10-06T14:59:53.696Z,18.86
2022-10-06T15:09:57.665Z,18.78
2022-10-06T15:20:00.045Z,18.41
2022-10-06T15:30:03.835Z,18.42
2022-10-06T15:40:06.677Z,18.25
2022-10-06T15:50:13.965Z,18.14
2022-10-06T16:00:19.019Z,18.08
2022-10-06T16:10:22.743Z,17.88
2022-10-06T16:20:25.224Z,17.77
2022-10-06T16:30:28.970Z,17.63
2022-10-06T16:40:31.339Z,17.47
2022-10-06T16:50:35.119Z,17.26
2022-10-06T17:00:38.082Z,17.11
2022-10-06T17:10:41.901Z,17.10
2022-10-06T17:20:44.521Z,17.01
2022-10-06T17:30:53.652Z,16.88
2022-10-06T17:40:56.415Z,16.83
2022-10-06T17:51:00.911Z,16.70
2022-10-06T18:01:07.301Z,16.67
2022-10-06T18:11:30.282Z,16.57
2022-10-06T18:21:37.336Z,16.50
2022-10-06T18:31:41.115Z,16.46
2022-10-06T18:41:44.281Z,16.44
2022-10-06T18:51:48.916Z,16.30
2022-10-06T19:01:51.665Z,16.17
2022-10-06T19:11:56.551Z,16.16
2022-10-06T19:22:00.339Z,16.17
2022-10-06T19:32:05.452Z,16.09
2022-10-06T19:42:25.422Z,16.06
2022-10-06T19:52:31.155Z,15.96
2022-10-06T20:02:34.401Z,15.97
2022-10-06T20:12:41.048Z,15.86
2022-10-06T20:22:43.445Z,15.89
2022-10-06T20:32:47.209Z,15.85
2022-10-06T20:42:54.653Z,15.74
2022-10-06T20:52:58.974Z,15.71
2022-10-06T21:03:02.744Z,15.70
2022-10-06T21:13:06.549Z,15.57
2022-10-06T21:23:08.931Z,15.56
2022-10-06T21:33:12.657Z,15.55
2022-10-06T21:43:15.184Z,15.57
2022-10-06T21:53:18.936Z,15.49
2022-10-06T22:03:21.298Z,15.55
2022-10-06T22:13:25.331Z,15.48
2022-10-06T22:23:27.755Z,15.48
2022-10-06T22:33:31.693Z,15.46
2022-10-06T22:43:34.435Z,15.51
2022-10-06T22:53:38.166Z,15.43
2022-10-06T23:03:40.620Z,15.50
2022-10-06T23:13:44.796Z,15.46
2022-10-06T23:23:47.224Z,15.48
2022-10-06T23:33:51.005Z,15.48
2022-10-06T23:43:53.400Z,15.49
2022-10-06T23:53:57.146Z,15.28
